Terminal Aerodrome Forecast
Issued by NWS Portland, ME

Home | Current Version | Previous Version | Text Only | Print | Product List | Glossary On
Versions: 1 2 3 4 5 6 7 8 9 10 11 12 13 14 15 16 17 18 19 20 21 22 23 24 25 26
138
FTUS41 KGYX 260911 AAB
TAFPWM
TAF AMD
KPWM 260911Z 2609/2706 07010KT 2SM -RA BKN007 OVC020
     FM261100 05010KT 3SM -RADZ OVC007
     FM261300 02012KT 6SM -SHRA OVC012
     FM261700 36010KT P6SM OVC015 PROB30 2620/2624 4SM -SHRA OVC012=

USA.gov is the U.S. government's official web portal to all federal, state and local government web resources and services.